Louisville, NE

1:22 PM CDT on May 06, 2015 (GMT -0500)
Southridge | | Change Station
CLOSE
Current Station
Personal Weather Station
Location: Louisville, NE
Elevation: 1083 ft
Nearby Weather Stations

Elev 1083 ft 40.99 °N, 96.15 °W | Updated 1 minute ago

Overcast
Overcast
66.3 °F
Feels Like 66.3 °F
N
2.0
Wind Variable Wind from SE
Gusts 7.0 mph

Today
High -- | Low -- °F
--% Chance of Precip.
Yesterday
High -- | Low -- °F
Precip. -- in
6:16 AM 8:26 PM
Waning Gibbous, 93% visible
Pressure 29.85 in
Visibility 10.0 miles
Clouds Overcast 2800 ft
Dew Point 62 °F
Humidity 87%
Rainfall 0.18 in
Snow Depth Not available.
UV 3 out of 12
Pollen 7.70 out of 12
Air Quality Not available.
Flu Activity Local Activity
METAR KPMV 061815Z AUTO 16015G19KT 10SM OVC028 21/15 A2985 RMK AO2 LTG DSNT S T02070150

More Conditions Fewer Conditions

Pressure 29.85 in
Visibility 10.0 miles
Clouds Overcast 2800 ft
Dew Point 62 °F
Humidity 87%
Rainfall 0.18 in
Snow Depth Not available.
UV 3 out of 12
Pollen 7.70 out of 12
Air Quality Not available.
Flu Activity Local Activity
METAR KPMV 061815Z AUTO 16015G19KT 10SM OVC028 21/15 A2985 RMK AO2 LTG DSNT S T02070150

More Conditions Fewer Conditions

The Storm Prediction Center has issued an enhanced risk of severe weather for parts of central Texas, Oklahoma, Kansas, and southern Nebraska. Severe thunderstorms could form strong tornadoes, large hail, heavy rain, and strong wind into the evening. An area of slight risk of severe weather encompasses this enhanced area.

10-Day Weather Forecast

Almanac

Astronomy

May. 06, 2015 Rise Set
Actual Time
Civil Twilight
Nautical Twilight
Astronomical Twilight
Moon
Length of Visible Light
Length of Day
Tomorrow will be .
, % of the Moon is Illuminated

Today's Extremes

State Highs State Lows

Community

WunderPhotos

Upload Photos

1,818,968 photos uploaded!

WunderBlogs® & News

Nearby

Air Quality

  Air Quality AQ Index Pollutant
Not available.

Snow Depth

Station Depth Elevation

Earthquake Activity

City Distance Mag. Time & Date
Minimum magnitude displayed is 2.5.

Coastal Water Temperatures

Place Temperature

Stations

Nearby Weather Stations

Station Location Temp. Windchill Dew Point Humidity Wind Precip. Elev Updated Type